Time;durP1;ratioP1;P1;durP2;ratioP2;P2;SDS_P1;SDS_P2;PMS_P1;PMS_P2;Temp;Humidity;BMP_temperature;BMP_pressure;BME280_temperature;BME280_humidity;BME280_pressure;Samples;Min_cycle;Max_cycle;Signal;HPM_P1;HPM_P2
2021/12/23 00:02:19;;;;;;;9.18;6.00;;;0.00;99.90;;;;;;5270559;28;20032;-72
2021/12/23 00:04:50;;;;;;;7.22;5.00;;;0.10;99.90;;;;;;5270411;28;20051;-76
2021/12/23 00:07:21;;;;;;;7.13;5.15;;;0.20;99.90;;;;;;5270227;28;20016;-72
2021/12/23 00:10:12;;;;;;;6.43;4.15;;;0.30;99.90;;;;;;5269764;28;20487;-75
2021/12/23 00:12:45;;;;;;;10.88;6.30;;;0.20;99.90;;;;;;5270020;28;20135;-72
2021/12/23 00:18:29;;;;;;;11.57;6.40;;;0.00;99.90;;;;;;5270452;28;20035;-72
2021/12/23 00:23:51;;;;;;;6.50;4.37;;;0.00;99.90;;;;;;5270299;28;20047;-72
2021/12/23 00:26:22;;;;;;;6.03;3.70;;;0.10;99.90;;;;;;5270077;28;20269;-72
2021/12/23 00:28:53;;;;;;;6.95;4.07;;;0.20;99.90;;;;;;5269985;28;20031;-71
2021/12/23 00:31:24;;;;;;;8.18;4.60;;;0.40;99.90;;;;;;5269922;28;20036;-76
2021/12/23 00:33:55;;;;;;;7.20;4.85;;;0.20;99.90;;;;;;5270120;28;20020;-73
2021/12/23 00:36:26;;;;;;;9.40;5.35;;;0.20;99.90;;;;;;5269723;28;20031;-76
2021/12/23 00:38:57;;;;;;;8.10;3.92;;;0.20;99.90;;;;;;5269817;28;20467;-76
2021/12/23 00:41:31;;;;;;;6.25;4.10;;;0.10;99.90;;;;;;5269790;28;20169;-76
2021/12/23 00:44:01;;;;;;;6.35;4.28;;;0.20;99.90;;;;;;5269764;28;20051;-71
2021/12/23 00:46:32;;;;;;;8.65;4.50;;;0.40;99.90;;;;;;5269533;28;20032;-76
2021/12/23 00:49:05;;;;;;;8.25;4.13;;;0.30;99.90;;;;;;5269449;28;20085;-76
2021/12/23 00:51:36;;;;;;;11.35;5.03;;;0.10;99.90;;;;;;5269716;28;20341;-71
2021/12/23 00:54:07;;;;;;;6.35;4.20;;;0.00;99.90;;;;;;5269535;28;20020;-72
2021/12/23 00:56:39;;;;;;;7.03;4.53;;;0.00;99.90;;;;;;5269416;28;20100;-76
2021/12/23 00:59:10;;;;;;;5.65;3.80;;;-0.30;99.90;;;;;;5269458;28;20094;-76
2021/12/23 01:01:42;;;;;;;5.85;3.95;;;-0.10;99.90;;;;;;5269475;28;20031;-76
2021/12/23 01:04:13;;;;;;;5.57;3.90;;;0.00;99.90;;;;;;5269469;28;20391;-76
2021/12/23 01:06:44;;;;;;;7.25;5.00;;;0.00;99.90;;;;;;5268090;28;20034;-73
2021/12/23 01:09:14;;;;;;;8.90;4.93;;;0.00;99.90;;;;;;5269353;28;20103;-76
2021/12/23 01:11:48;;;;;;;7.32;4.47;;;0.00;99.90;;;;;;5269187;28;20055;-75
2021/12/23 01:19:20;;;;;;;8.32;5.07;;;-0.10;99.90;;;;;;5269297;28;20372;-71
2021/12/23 01:21:51;;;;;;;8.00;5.18;;;-0.20;99.90;;;;;;5268512;28;20024;-76
2021/12/23 01:24:26;;;;;;;9.77;5.88;;;-0.10;99.90;;;;;;5269026;28;20032;-72
2021/12/23 01:26:57;;;;;;;7.93;5.13;;;0.00;99.90;;;;;;5269352;28;20024;-71
2021/12/23 01:29:28;;;;;;;10.60;6.18;;;0.00;99.90;;;;;;5269113;28;20027;-71
2021/12/23 01:32:03;;;;;;;8.48;5.55;;;0.00;99.90;;;;;;5267878;28;20032;-71
2021/12/23 01:34:35;;;;;;;7.90;5.28;;;0.00;99.90;;;;;;5269194;28;20085;-74
2021/12/23 01:37:06;;;;;;;8.73;5.60;;;0.00;99.90;;;;;;5268877;28;20576;-76
2021/12/23 01:39:37;;;;;;;8.15;5.30;;;0.20;99.90;;;;;;5268914;28;20054;-76
2021/12/23 01:42:08;;;;;;;7.43;4.50;;;-0.20;99.90;;;;;;5269005;28;20036;-75
2021/12/23 01:44:38;;;;;;;6.95;4.05;;;-0.10;99.90;;;;;;5268769;28;20047;-72
2021/12/23 01:47:09;;;;;;;9.63;5.07;;;0.20;99.90;;;;;;5267584;28;20017;-72
2021/12/23 01:49:40;;;;;;;9.05;5.15;;;0.20;99.90;;;;;;5268719;28;20028;-72
2021/12/23 01:52:11;;;;;;;9.18;5.57;;;0.00;99.90;;;;;;5268811;28;20103;-76
2021/12/23 01:54:42;;;;;;;9.63;4.85;;;-0.10;99.90;;;;;;5268855;28;20048;-72
2021/12/23 01:57:14;;;;;;;6.70;3.80;;;-0.20;99.90;;;;;;5268770;28;20071;-75
2021/12/23 01:59:44;;;;;;;8.18;4.35;;;0.20;99.90;;;;;;5267583;28;20031;-72
2021/12/23 02:02:16;;;;;;;7.30;3.60;;;0.20;99.90;;;;;;5268771;28;20379;-76
2021/12/23 02:04:47;;;;;;;7.38;3.67;;;0.00;99.90;;;;;;5268693;28;20032;-71
2021/12/23 02:07:18;;;;;;;8.07;4.15;;;0.40;99.90;;;;;;5268653;28;20098;-74
2021/12/23 02:09:49;;;;;;;7.93;3.78;;;0.30;99.90;;;;;;5268313;28;20028;-72
2021/12/23 02:12:20;;;;;;;7.85;4.15;;;0.20;99.90;;;;;;5268701;28;20033;-71
2021/12/23 02:14:51;;;;;;;5.25;3.40;;;0.30;99.90;;;;;;5268383;28;20142;-71
2021/12/23 02:17:22;;;;;;;7.97;3.78;;;0.20;99.90;;;;;;5268681;28;20103;-71
2021/12/23 02:19:54;;;;;;;6.72;4.10;;;0.20;99.90;;;;;;5268538;28;20024;-71
2021/12/23 02:22:25;;;;;;;5.65;3.60;;;0.10;99.90;;;;;;5268515;28;20031;-76
2021/12/23 02:24:56;;;;;;;6.82;4.30;;;0.00;99.90;;;;;;5268361;28;20044;-76
2021/12/23 02:27:27;;;;;;;7.53;4.20;;;0.00;99.90;;;;;;5268451;28;20065;-76
2021/12/23 02:29:57;;;;;;;6.63;3.92;;;-0.10;99.90;;;;;;5268547;28;20032;-72
2021/12/23 02:32:28;;;;;;;6.40;3.70;;;0.00;99.90;;;;;;5268441;28;20460;-76
2021/12/23 02:34:59;;;;;;;6.30;4.13;;;0.00;99.90;;;;;;5272349;28;20382;-76
2021/12/23 02:37:30;;;;;;;7.20;4.28;;;0.10;99.90;;;;;;5272239;28;20467;-71
2021/12/23 02:40:01;;;;;;;9.15;4.55;;;0.00;99.90;;;;;;5272139;28;20106;-72
2021/12/23 02:42:32;;;;;;;6.82;4.10;;;-0.20;99.90;;;;;;5271950;28;20109;-73
2021/12/23 02:45:09;;;;;;;120.30;63.63;;;-0.10;99.90;;;;;;5272155;28;20059;-71
2021/12/23 02:47:39;;;;;;;31.33;16.88;;;0.20;99.90;;;;;;5272093;28;20020;-71
2021/12/23 02:50:10;;;;;;;16.00;9.48;;;0.00;99.90;;;;;;5272105;28;20374;-75
2021/12/23 02:52:41;;;;;;;8.13;4.97;;;-0.30;99.90;;;;;;5271966;28;20356;-75
2021/12/23 02:55:12;;;;;;;6.63;4.22;;;-0.10;99.90;;;;;;5271770;28;20028;-71
2021/12/23 02:57:43;;;;;;;7.35;4.18;;;-0.10;99.90;;;;;;5271952;28;20016;-71
2021/12/23 03:00:15;;;;;;;8.57;4.10;;;-0.10;99.90;;;;;;5271851;28;20028;-74
2021/12/23 03:02:46;;;;;;;6.97;4.95;;;0.00;99.90;;;;;;5271618;28;20016;-71
2021/12/23 03:05:17;;;;;;;6.78;4.43;;;0.00;99.90;;;;;;5271657;28;20101;-72
2021/12/23 03:07:48;;;;;;;11.10;4.05;;;-0.10;99.90;;;;;;5271669;28;20020;-75
2021/12/23 03:10:22;;;;;;;8.82;4.30;;;-0.10;99.90;;;;;;5271530;28;20028;-76
2021/12/23 03:12:53;;;;;;;7.68;4.45;;;-0.10;99.90;;;;;;5271313;28;20028;-72
2021/12/23 03:15:23;;;;;;;8.07;4.32;;;-0.10;99.90;;;;;;5271571;28;20020;-71
2021/12/23 03:17:54;;;;;;;8.60;4.40;;;-0.20;99.90;;;;;;5271535;28;20038;-72
2021/12/23 03:20:25;;;;;;;6.32;3.90;;;-0.10;99.90;;;;;;5271477;28;20024;-72
2021/12/23 03:22:56;;;;;;;34.17;20.63;;;-0.10;99.90;;;;;;5271235;28;20107;-72
2021/12/23 03:25:26;;;;;;;8.68;5.32;;;0.00;99.90;;;;;;5271333;28;20055;-73
2021/12/23 03:27:57;;;;;;;10.27;4.78;;;0.00;99.90;;;;;;5271149;28;20024;-75
2021/12/23 03:30:28;;;;;;;6.18;3.38;;;-0.10;99.90;;;;;;5271280;28;20107;-71
2021/12/23 03:32:59;;;;;;;7.75;3.72;;;0.00;99.90;;;;;;5271118;28;20012;-72
2021/12/23 03:35:30;;;;;;;7.60;3.20;;;0.00;99.90;;;;;;5271175;28;20020;-72
2021/12/23 03:38:01;;;;;;;6.40;3.38;;;0.00;99.90;;;;;;5271024;28;20028;-72
2021/12/23 03:40:32;;;;;;;8.27;3.40;;;0.10;99.90;;;;;;5271007;28;20020;-75
2021/12/23 03:43:03;;;;;;;6.75;3.78;;;0.00;99.90;;;;;;5270855;28;20036;-71
2021/12/23 03:45:34;;;;;;;9.95;4.07;;;-0.10;99.90;;;;;;5270106;28;20463;-74
2021/12/23 03:48:05;;;;;;;7.72;3.38;;;-0.10;99.90;;;;;;5270852;28;20028;-75
2021/12/23 03:50:36;;;;;;;7.38;4.28;;;0.00;99.90;;;;;;5270743;28;20111;-76
2021/12/23 03:53:07;;;;;;;7.18;3.85;;;0.00;99.90;;;;;;5270733;28;20118;-72
2021/12/23 03:55:38;;;;;;;5.68;3.60;;;-0.10;99.90;;;;;;5270623;28;20030;-72
2021/12/23 03:58:09;;;;;;;8.15;3.20;;;0.00;99.90;;;;;;5270552;28;20028;-71
2021/12/23 04:00:40;;;;;;;5.65;3.55;;;0.20;99.90;;;;;;5270783;28;20031;-71
2021/12/23 04:03:12;;;;;;;9.93;5.82;;;0.10;99.90;;;;;;5270468;28;20043;-75
2021/12/23 04:05:43;;;;;;;18.00;9.70;;;0.20;99.90;;;;;;5270378;28;20024;-75
2021/12/23 04:08:14;;;;;;;13.77;7.30;;;0.10;99.90;;;;;;5270416;28;20047;-72
2021/12/23 04:10:45;;;;;;;15.43;8.98;;;-0.20;99.90;;;;;;5270243;28;20024;-72
2021/12/23 04:13:16;;;;;;;14.25;7.90;;;0.00;99.90;;;;;;5268825;28;20044;-75
2021/12/23 04:15:47;;;;;;;9.35;4.15;;;0.00;99.90;;;;;;5270267;28;20101;-75
2021/12/23 04:18:17;;;;;;;6.88;4.55;;;-0.10;99.90;;;;;;5270258;28;20157;-75
2021/12/23 04:20:54;;;;;;;11.75;5.35;;;0.00;99.90;;;;;;5270239;28;20031;-75
2021/12/23 04:23:29;;;;;;;5.65;3.58;;;0.10;99.90;;;;;;5270113;28;20036;-72
2021/12/23 04:26:00;;;;;;;5.30;3.47;;;-0.10;99.90;;;;;;5270134;28;20476;-72
2021/12/23 04:28:30;;;;;;;5.60;3.20;;;-0.20;99.90;;;;;;5269957;28;20031;-71
2021/12/23 04:31:01;;;;;;;6.68;3.22;;;-0.10;99.90;;;;;;5270142;28;20028;-72
2021/12/23 04:33:32;;;;;;;5.40;2.85;;;-0.10;99.90;;;;;;5269984;28;20035;-74
2021/12/23 04:36:03;;;;;;;5.25;3.08;;;-0.20;99.90;;;;;;5268549;28;20552;-74
2021/12/23 04:38:35;;;;;;;4.28;2.90;;;-0.10;99.90;;;;;;5271044;28;20024;-71
2021/12/23 04:41:06;;;;;;;4.32;2.85;;;-0.20;99.90;;;;;;5269898;28;20032;-76
2021/12/23 04:43:38;;;;;;;4.60;2.80;;;-0.30;99.90;;;;;;5269667;28;20498;-75
2021/12/23 04:46:10;;;;;;;4.50;3.15;;;-0.30;99.90;;;;;;5269733;28;20028;-75
2021/12/23 04:48:44;;;;;;;6.47;3.33;;;-0.50;99.90;;;;;;5269713;28;20062;-71
2021/12/23 04:51:16;;;;;;;5.38;3.38;;;-0.30;99.90;;;;;;5269626;28;20107;-71
2021/12/23 04:53:48;;;;;;;5.85;3.22;;;-0.40;99.90;;;;;;5269540;28;20019;-75
2021/12/23 04:56:19;;;;;;;4.90;2.63;;;-0.20;99.90;;;;;;5286748;28;20055;-75
2021/12/23 04:58:50;;;;;;;4.88;2.80;;;-0.30;99.90;;;;;;5290415;28;20019;-71
2021/12/23 05:01:27;;;;;;;6.10;2.80;;;-0.40;99.90;;;;;;5287538;28;20028;-72
2021/12/23 05:03:59;;;;;;;6.10;2.80;;;-0.40;99.90;;;;;;5290603;28;20036;-72
2021/12/23 05:06:30;;;;;;;5.97;2.92;;;-0.60;99.90;;;;;;5290489;28;20020;-71
2021/12/23 05:09:01;;;;;;;3.97;2.30;;;-0.60;99.90;;;;;;5290373;28;20030;-71
2021/12/23 05:11:32;;;;;;;4.63;2.85;;;-0.90;99.90;;;;;;5290313;28;20444;-74
2021/12/23 05:14:02;;;;;;;5.53;2.35;;;-1.10;99.90;;;;;;5288981;28;20054;-71
2021/12/23 05:16:34;;;;;;;5.45;3.05;;;-1.20;99.90;;;;;;5290275;28;20032;-73
2021/12/23 05:19:05;;;;;;;5.00;2.70;;;-1.10;99.90;;;;;;5290275;28;20027;-71
2021/12/23 05:21:36;;;;;;;4.88;2.53;;;-1.00;99.90;;;;;;5290273;28;20467;-70
2021/12/23 05:24:07;;;;;;;6.18;2.80;;;-1.20;99.90;;;;;;5290192;28;20101;-71
2021/12/23 05:26:38;;;;;;;6.88;2.65;;;-1.00;99.90;;;;;;5290228;28;20417;-71
2021/12/23 05:29:11;;;;;;;6.07;2.67;;;-1.00;99.90;;;;;;5290188;28;20386;-72
2021/12/23 05:31:41;;;;;;;4.45;2.88;;;-1.40;99.90;;;;;;5290158;28;20023;-74
2021/12/23 05:34:12;;;;;;;5.75;2.90;;;-1.30;99.90;;;;;;5290128;28;20012;-75
2021/12/23 05:36:43;;;;;;;4.97;2.70;;;-1.30;99.90;;;;;;5290159;28;20023;-75
2021/12/23 05:39:14;;;;;;;4.57;2.83;;;-1.20;99.90;;;;;;5290100;28;20024;-71
2021/12/23 05:41:45;;;;;;;5.07;2.78;;;-1.40;99.90;;;;;;5290027;28;20084;-72
2021/12/23 05:44:16;;;;;;;3.97;2.38;;;-1.50;99.90;;;;;;5289812;28;20082;-71
2021/12/23 05:46:46;;;;;;;4.97;2.45;;;-1.60;99.90;;;;;;5289935;28;20026;-71
2021/12/23 05:49:17;;;;;;;5.40;2.60;;;-1.90;99.90;;;;;;5289838;28;20099;-72
2021/12/23 05:51:48;;;;;;;7.28;3.25;;;-1.40;99.90;;;;;;5274712;28;20051;-75
2021/12/23 05:54:19;;;;;;;4.47;2.70;;;-1.40;99.90;;;;;;5268955;28;20020;-71
2021/12/23 05:56:50;;;;;;;5.05;3.03;;;-1.40;99.90;;;;;;5268879;28;20467;-75
2021/12/23 05:59:21;;;;;;;7.03;3.15;;;-1.40;99.90;;;;;;5269760;28;20098;-76
2021/12/23 06:01:51;;;;;;;6.68;2.75;;;-1.50;99.90;;;;;;5268764;28;20550;-69
2021/12/23 06:04:22;;;;;;;6.30;2.95;;;-1.40;99.90;;;;;;5268755;28;20086;-69
2021/12/23 06:06:53;;;;;;;5.53;3.03;;;-1.40;99.90;;;;;;5268284;28;20038;-70
2021/12/23 06:09:24;;;;;;;5.47;2.97;;;-1.60;99.90;;;;;;5271822;28;20035;-69
2021/12/23 06:11:55;;;;;;;9.48;3.88;;;-1.60;99.90;;;;;;5272752;28;20081;-70
2021/12/23 06:14:26;;;;;;;6.32;3.33;;;-1.80;99.90;;;;;;5272528;28;20043;-69
2021/12/23 06:16:57;;;;;;;6.03;3.03;;;-1.60;99.90;;;;;;5272722;28;20490;-73
2021/12/23 06:19:28;;;;;;;5.35;2.75;;;-1.50;99.90;;;;;;5272858;28;20024;-69
2021/12/23 06:21:59;;;;;;;6.20;3.17;;;-1.70;99.90;;;;;;5272628;28;20028;-69
2021/12/23 06:24:31;;;;;;;12.65;6.40;;;-1.70;99.90;;;;;;5272591;28;20111;-69
2021/12/23 06:27:02;;;;;;;5.90;3.83;;;-1.40;99.90;;;;;;5272478;28;20020;-69
2021/12/23 06:29:33;;;;;;;6.63;3.53;;;-1.30;99.90;;;;;;5281370;28;20084;-75
2021/12/23 06:32:04;;;;;;;6.68;2.95;;;-1.20;99.90;;;;;;5284698;28;20416;-74
2021/12/23 06:34:35;;;;;;;4.50;2.75;;;-1.50;99.90;;;;;;5285425;28;20031;-74
2021/12/23 06:37:06;;;;;;;5.55;2.90;;;-1.50;99.90;;;;;;5292599;28;20039;-73
2021/12/23 06:39:38;;;;;;;5.40;2.58;;;-1.30;99.90;;;;;;5289704;28;20675;-73
2021/12/23 06:42:09;;;;;;;4.55;3.00;;;-1.40;99.90;;;;;;5300832;27;20077;-70
2021/12/23 06:44:39;;;;;;;5.03;2.88;;;-1.20;99.90;;;;;;5292978;27;20055;-69
2021/12/23 06:47:10;;;;;;;5.13;2.70;;;-1.00;99.90;;;;;;5293006;28;20036;-74
2021/12/23 06:49:41;;;;;;;5.15;3.00;;;-0.60;99.90;;;;;;5293054;28;20020;-73
2021/12/23 06:52:12;;;;;;;5.68;2.97;;;-0.70;99.90;;;;;;5292800;28;20102;-74
2021/12/23 06:54:47;;;;;;;4.75;2.92;;;-0.50;99.90;;;;;;5291608;28;20048;-79
2021/12/23 06:57:18;;;;;;;4.88;2.45;;;-0.50;99.90;;;;;;5292879;28;20020;-75
2021/12/23 06:59:49;;;;;;;6.25;2.90;;;-0.30;99.90;;;;;;5293115;28;20025;-73
2021/12/23 07:02:19;;;;;;;5.00;3.08;;;-0.10;99.90;;;;;;5311869;27;20023;-73
2021/12/23 07:04:50;;;;;;;4.75;2.70;;;-0.10;99.90;;;;;;5313802;27;20371;-73
2021/12/23 07:07:28;;;;;;;4.13;2.53;;;-0.10;99.90;;;;;;5313957;27;20023;-73
2021/12/23 07:09:58;;;;;;;5.47;2.42;;;0.00;99.90;;;;;;5312462;27;20478;-75
2021/12/23 07:12:29;;;;;;;5.10;2.75;;;-0.20;99.90;;;;;;5313794;27;20027;-75
2021/12/23 07:15:04;;;;;;;75.70;35.60;;;-0.40;99.90;;;;;;5313855;27;20378;-75
2021/12/23 07:17:35;;;;;;;31.20;14.93;;;0.30;99.90;;;;;;5312515;27;20450;-75
2021/12/23 07:20:07;;;;;;;6.43;2.80;;;0.60;99.90;;;;;;5311503;27;20102;-75
2021/12/23 07:22:38;;;;;;;2.50;1.80;;;0.70;99.90;;;;;;5313817;27;20027;-76
2021/12/23 07:25:09;;;;;;;6.60;2.30;;;0.80;99.90;;;;;;5300348;27;20039;-75
2021/12/23 07:27:41;;;;;;;5.50;2.95;;;1.20;99.90;;;;;;5292509;28;20054;-75
2021/12/23 07:30:14;;;;;;;4.57;2.70;;;1.60;99.90;;;;;;5292411;27;20070;-73
2021/12/23 07:32:45;;;;;;;5.25;3.15;;;2.00;99.90;;;;;;5292413;28;20020;-75
2021/12/23 07:35:18;;;;;;;3.85;2.53;;;2.40;99.90;;;;;;5292166;28;20028;-75
2021/12/23 07:37:49;;;;;;;3.70;2.40;;;2.60;99.90;;;;;;5292263;28;20019;-75
2021/12/23 07:40:20;;;;;;;4.25;2.45;;;1.90;99.90;;;;;;5291600;28;20035;-74
2021/12/23 07:42:54;;;;;;;4.88;2.47;;;2.00;99.90;;;;;;5292221;28;20038;-75
2021/12/23 07:45:29;;;;;;;53.80;31.30;;;2.00;99.90;;;;;;5291945;28;20027;-76
2021/12/23 07:48:00;;;;;;;12.60;7.80;;;2.50;99.90;;;;;;5289734;28;20031;-74
2021/12/23 07:50:31;;;;;;;5.13;2.72;;;2.80;99.90;;;;;;5291971;28;20031;-74
2021/12/23 07:53:02;;;;;;;13.10;7.43;;;2.70;99.90;;;;;;5291891;28;20383;-74
2021/12/23 07:55:33;;;;;;;12.18;6.65;;;3.30;99.90;;;;;;5291906;28;20112;-74
2021/12/23 07:58:04;;;;;;;39.25;26.77;;;3.60;99.90;;;;;;5291702;28;20038;-73
2021/12/23 08:00:35;;;;;;;9.57;4.70;;;3.70;99.90;;;;;;5291252;28;20459;-75
2021/12/23 08:03:06;;;;;;;7.63;3.45;;;4.10;99.90;;;;;;5291656;28;20028;-73
2021/12/23 08:05:37;;;;;;;5.63;3.55;;;3.50;98.10;;;;;;5291483;28;20066;-72
2021/12/23 08:08:08;;;;;;;7.72;3.80;;;3.70;99.90;;;;;;5291473;28;20023;-73
2021/12/23 08:10:39;;;;;;;7.43;4.95;;;4.30;99.90;;;;;;5291377;27;20035;-73
2021/12/23 08:13:09;;;;;;;5.78;3.28;;;3.60;99.90;;;;;;5291237;28;20407;-76
2021/12/23 08:15:40;;;;;;;8.63;4.32;;;4.00;99.90;;;;;;5290229;28;20157;-75
2021/12/23 08:18:11;;;;;;;7.28;3.50;;;4.20;99.90;;;;;;5291415;28;20462;-75
2021/12/23 08:20:42;;;;;;;15.88;9.20;;;4.20;99.90;;;;;;5290568;28;20468;-74
2021/12/23 08:23:13;;;;;;;10.43;5.43;;;4.10;99.90;;;;;;5291481;28;20188;-75
2021/12/23 08:25:45;;;;;;;6.03;3.80;;;4.30;99.90;;;;;;5291211;28;20095;-76
2021/12/23 08:28:16;;;;;;;7.15;4.07;;;5.10;99.90;;;;;;5291136;28;20024;-74
2021/12/23 08:30:47;;;;;;;6.45;3.67;;;4.80;99.90;;;;;;5295085;27;20128;-75
2021/12/23 08:33:17;;;;;;;7.65;4.20;;;4.60;99.90;;;;;;5312284;27;20106;-75
2021/12/23 08:35:48;;;;;;;6.32;3.92;;;4.40;99.90;;;;;;5296011;27;20043;-73
2021/12/23 08:38:19;;;;;;;6.18;4.30;;;4.80;99.90;;;;;;5291073;28;20034;-74
2021/12/23 08:40:51;;;;;;;7.28;4.57;;;4.70;99.90;;;;;;5290847;28;20027;-75
2021/12/23 08:43:23;;;;;;;8.25;4.00;;;4.50;99.90;;;;;;5290950;28;20445;-75
2021/12/23 08:45:54;;;;;;;6.18;3.80;;;4.40;99.90;;;;;;5290862;28;20019;-76
2021/12/23 08:48:25;;;;;;;5.40;3.60;;;4.80;99.90;;;;;;5290800;27;20523;-75
2021/12/23 08:50:56;;;;;;;7.85;4.75;;;5.00;99.90;;;;;;5290826;28;20494;-74
2021/12/23 08:53:27;;;;;;;10.70;4.78;;;4.90;99.90;;;;;;5290906;28;20027;-76
2021/12/23 08:55:57;;;;;;;7.35;4.07;;;5.30;99.90;;;;;;5290949;28;20020;-73
2021/12/23 08:58:28;;;;;;;14.93;8.70;;;4.10;99.90;;;;;;5290514;28;20027;-74
2021/12/23 09:00:59;;;;;;;11.02;6.63;;;3.80;99.90;;;;;;5290361;27;20035;-72
2021/12/23 09:03:32;;;;;;;14.23;10.18;;;5.00;99.90;;;;;;5289851;28;20031;-73
2021/12/23 09:06:04;;;;;;;8.15;5.10;;;5.00;99.90;;;;;;5290306;27;20112;-72
2021/12/23 09:08:38;;;;;;;6.78;4.20;;;5.00;99.90;;;;;;5290400;28;20459;-72
2021/12/23 09:11:09;;;;;;;22.80;17.90;;;4.50;99.90;;;;;;5290306;28;20035;-73
2021/12/23 09:13:41;;;;;;;30.52;27.25;;;4.10;99.90;;;;;;5290008;28;20126;-72
2021/12/23 09:16:12;;;;;;;14.77;11.05;;;3.80;99.90;;;;;;5290129;28;20024;-78
2021/12/23 09:18:43;;;;;;;29.17;20.20;;;3.60;99.90;;;;;;5290366;28;20030;-72
2021/12/23 09:21:15;;;;;;;6.45;4.90;;;3.90;99.90;;;;;;5290302;28;20024;-76
2021/12/23 09:23:46;;;;;;;6.70;4.78;;;5.20;99.90;;;;;;5290110;28;20035;-73
2021/12/23 09:26:16;;;;;;;7.43;6.22;;;4.90;99.90;;;;;;5290055;28;20045;-73
2021/12/23 09:29:01;;;;;;;9.82;7.40;;;4.00;99.90;;;;;;5289933;28;20072;-77
2021/12/23 09:34:21;;;;;;;14.32;9.95;;;3.90;99.90;;;;;;5311445;27;20023;-72
2021/12/23 09:36:52;;;;;;;7.18;4.38;;;3.80;99.90;;;;;;5311013;27;20359;-72
2021/12/23 09:39:23;;;;;;;23.30;15.07;;;3.70;99.90;;;;;;5310817;27;20019;-73
2021/12/23 09:41:56;;;;;;;17.83;11.52;;;3.70;99.90;;;;;;5311313;27;20031;-75
2021/12/23 09:44:28;;;;;;;8.70;5.72;;;3.40;99.90;;;;;;5314565;27;20031;-75
2021/12/23 09:47:02;;;;;;;50.58;9.18;;;3.40;99.90;;;;;;5315638;27;20016;-73
2021/12/23 09:49:34;;;;;;;10.23;6.15;;;3.50;99.90;;;;;;5315392;27;20110;-73
2021/12/23 09:52:06;;;;;;;22.05;15.48;;;3.50;99.90;;;;;;5315516;27;20019;-74
2021/12/23 09:54:41;;;;;;;9.98;6.07;;;3.40;99.90;;;;;;5315413;27;20110;-73
2021/12/23 09:57:12;;;;;;;7.90;4.47;;;3.00;99.90;;;;;;5315457;27;20034;-73
2021/12/23 09:59:44;;;;;;;10.70;6.38;;;3.20;99.90;;;;;;5315391;27;20032;-77
2021/12/23 10:02:15;;;;;;;9.23;6.15;;;3.00;99.90;;;;;;5314778;27;20027;-76
2021/12/23 10:04:46;;;;;;;14.70;7.68;;;3.00;99.90;;;;;;5314954;27;20054;-72
2021/12/23 10:07:18;;;;;;;9.57;6.18;;;2.70;99.90;;;;;;5314976;27;20023;-76
2021/12/23 10:10:02;;;;;;;12.23;7.28;;;2.70;99.90;;;;;;5314733;27;20038;-76
2021/12/23 10:33:27;;;;;;;10.35;6.65;;;3.00;99.90;;;;;;5315072;27;20034;-74
2021/12/23 10:38:47;;;;;;;32.13;25.88;;;3.40;99.90;;;;;;5293045;28;20490;-72
2021/12/23 10:41:26;;;;;;;8.00;4.75;;;3.20;99.90;;;;;;5292843;28;20057;-76
2021/12/23 10:44:00;;;;;;;8.82;5.88;;;3.30;99.90;;;;;;5292946;28;20403;-76
2021/12/23 10:46:37;;;;;;;11.25;8.38;;;3.30;99.90;;;;;;5292885;28;20031;-76
2021/12/23 10:52:14;;;;;;;7.05;5.47;;;3.50;99.90;;;;;;5293083;28;20032;-76
2021/12/23 11:00:18;;;;;;;8.65;6.18;;;3.10;99.90;;;;;;5294280;27;20070;-71
2021/12/23 11:03:10;;;;;;;8.85;5.57;;;3.40;99.90;;;;;;5309088;27;20054;-78
2021/12/23 11:05:53;;;;;;;9.23;5.35;;;3.10;99.90;;;;;;5282916;27;20062;-74
2021/12/23 11:11:30;;;;;;;9.90;5.63;;;3.50;99.90;;;;;;5276607;28;20119;-77
2021/12/23 11:42:40;;;;;;;;;;;4.60;99.90;;;;;;5306914;27;20403;-72
2021/12/23 11:45:11;;;;;;;5.43;3.85;;;5.20;99.90;;;;;;5291951;28;19918;-76
2021/12/23 11:47:42;;;;;;;6.78;4.05;;;5.50;99.90;;;;;;5291953;28;20043;-75
2021/12/23 11:50:19;;;;;;;8.00;4.05;;;4.40;99.90;;;;;;5291714;28;20028;-72
2021/12/23 11:52:50;;;;;;;11.07;8.10;;;4.00;99.90;;;;;;5270902;28;20042;-72
2021/12/23 11:55:21;;;;;;;15.88;8.55;;;5.10;99.90;;;;;;5270472;28;20020;-71
2021/12/23 11:57:55;;;;;;;13.30;8.07;;;6.00;99.90;;;;;;5270470;28;20031;-72
2021/12/23 12:00:41;;;;;;;8.35;6.05;;;5.70;99.90;;;;;;5275951;27;20137;-73
2021/12/23 12:03:12;;;;;;;6.97;4.47;;;5.20;99.90;;;;;;5274388;27;20028;-74
2021/12/23 12:05:44;;;;;;;7.65;4.03;;;4.40;99.90;;;;;;5269785;28;20387;-78
2021/12/23 12:08:15;;;;;;;7.07;3.95;;;4.50;99.90;;;;;;5289355;28;20035;-73
2021/12/23 12:10:47;;;;;;;10.18;4.72;;;4.50;99.90;;;;;;5291518;27;20548;-73
2021/12/23 12:13:20;;;;;;;7.35;4.90;;;5.10;99.90;;;;;;5311737;27;20133;-76
2021/12/23 12:15:53;;;;;;;10.77;5.63;;;6.00;99.90;;;;;;5312005;27;20038;-76
2021/12/23 12:18:25;;;;;;;5.25;3.70;;;6.30;99.90;;;;;;5312092;27;20109;-78
2021/12/23 12:21:00;;;;;;;8.48;3.88;;;5.80;99.90;;;;;;5312212;27;20466;-75
2021/12/23 12:23:41;;;;;;;9.25;4.90;;;6.30;99.90;;;;;;5312456;27;20023;-78
2021/12/23 12:26:23;;;;;;;10.43;6.15;;;5.60;99.90;;;;;;5312535;27;20114;-73
2021/12/23 12:28:55;;;;;;;9.98;5.55;;;6.00;99.90;;;;;;5312288;27;20055;-76
2021/12/23 12:31:27;;;;;;;8.70;5.35;;;5.60;99.90;;;;;;5312165;27;20175;-77
2021/12/23 12:34:11;;;;;;;7.97;4.68;;;5.30;99.90;;;;;;5312166;27;20031;-73
2021/12/23 12:36:50;;;;;;;9.32;5.72;;;5.50;99.90;;;;;;5312237;27;20098;-73
2021/12/23 12:39:25;;;;;;;11.32;5.18;;;4.70;99.90;;;;;;5312281;27;20027;-73
2021/12/23 12:42:04;;;;;;;9.02;5.10;;;4.80;99.90;;;;;;5311290;27;20039;-73
2021/12/23 12:44:54;;;;;;;10.80;5.30;;;5.00;99.90;;;;;;5308780;27;20057;-78
2021/12/23 12:47:29;;;;;;;8.93;5.00;;;5.70;99.90;;;;;;5290870;28;20012;-76
2021/12/23 12:50:08;;;;;;;6.50;4.43;;;6.20;99.90;;;;;;5290719;28;20028;-75
2021/12/23 12:52:46;;;;;;;6.75;4.10;;;5.20;99.90;;;;;;5290653;28;20027;-75
2021/12/23 12:55:23;;;;;;;7.05;4.18;;;5.50;99.90;;;;;;5290725;28;20012;-75
2021/12/23 12:58:04;;;;;;;6.32;4.45;;;6.30;99.90;;;;;;5290781;28;20053;-75
2021/12/23 13:00:39;;;;;;;7.88;3.65;;;5.90;99.90;;;;;;5290105;28;20084;-74
2021/12/23 13:03:14;;;;;;;5.65;3.63;;;5.50;99.90;;;;;;5307090;27;20023;-72
2021/12/23 13:05:49;;;;;;;6.22;3.88;;;5.70;99.90;;;;;;5298601;27;20383;-76
2021/12/23 13:08:32;;;;;;;6.20;3.60;;;5.90;99.90;;;;;;5290341;28;20016;-73
2021/12/23 13:11:12;;;;;;;6.72;3.70;;;6.40;99.90;;;;;;5290466;28;20035;-76
2021/12/23 13:13:45;;;;;;;6.03;3.47;;;6.30;99.90;;;;;;5288899;28;20050;-74
2021/12/23 13:16:20;;;;;;;8.27;4.18;;;6.20;99.90;;;;;;5290239;28;20490;-77
2021/12/23 13:19:11;;;;;;;6.82;4.00;;;5.80;99.90;;;;;;5289421;28;20035;-75
2021/12/23 13:21:42;;;;;;;;;;;5.90;99.90;;;;;;5290605;28;20016;-75
2021/12/23 13:24:17;;;;;;;5.95;3.33;;;5.90;99.90;;;;;;5289627;28;19986;-76
2021/12/23 13:26:49;;;;;;;12.38;8.45;;;5.70;99.90;;;;;;5290211;28;20023;-74
2021/12/23 13:29:27;;;;;;;12.30;6.63;;;5.20;99.90;;;;;;5288881;28;20370;-76
2021/12/23 13:31:59;;;;;;;10.57;5.50;;;5.60;99.90;;;;;;5289818;28;20024;-73
2021/12/23 13:34:33;;;;;;;5.97;3.65;;;4.50;99.90;;;;;;5289733;28;20023;-76
2021/12/23 13:37:06;;;;;;;6.60;3.95;;;4.30;99.90;;;;;;5290052;28;20026;-75
2021/12/23 13:39:40;;;;;;;6.43;3.90;;;4.10;99.90;;;;;;5289863;28;20102;-76
2021/12/23 13:42:12;;;;;;;7.82;3.60;;;4.00;99.90;;;;;;5289623;28;20432;-73
2021/12/23 13:44:47;;;;;;;9.57;5.30;;;4.20;99.90;;;;;;5289855;28;20024;-76
2021/12/23 13:47:20;;;;;;;11.93;5.80;;;3.80;99.90;;;;;;5289951;28;20030;-74
2021/12/23 13:49:56;;;;;;;8.57;5.10;;;4.20;99.90;;;;;;5289876;28;20031;-75
2021/12/23 13:52:33;;;;;;;8.32;4.70;;;4.30;99.90;;;;;;5289722;28;20020;-73
2021/12/23 13:55:07;;;;;;;8.35;4.85;;;3.90;99.90;;;;;;5289855;28;20364;-77
2021/12/23 13:57:46;;;;;;;19.83;11.18;;;3.60;99.90;;;;;;5289808;28;20479;-76
2021/12/23 14:00:22;;;;;;;12.07;5.63;;;3.70;99.90;;;;;;5291033;28;20102;-76
2021/12/23 14:03:07;;;;;;;17.10;9.73;;;3.70;99.90;;;;;;5311257;27;20527;-77
2021/12/23 14:05:50;;;;;;;7.65;4.30;;;3.50;99.90;;;;;;5311197;27;20035;-77
2021/12/23 14:08:23;;;;;;;10.82;4.78;;;2.80;99.90;;;;;;5299850;28;20017;-76
2021/12/23 14:10:53;;;;;;;9.27;5.45;;;2.20;99.90;;;;;;5310748;27;20027;-75
2021/12/23 14:13:24;;;;;;;6.85;4.13;;;2.90;99.90;;;;;;5310640;27;20054;-75
2021/12/23 14:15:55;;;;;;;7.82;4.63;;;2.30;99.90;;;;;;5310542;27;20024;-77
2021/12/23 14:24:11;;;;;;;7.82;4.30;;;1.90;99.90;;;;;;5310700;28;20104;-74
2021/12/23 14:26:42;;;;;;;6.72;4.00;;;1.90;99.90;;;;;;5311199;27;20047;-73
2021/12/23 14:29:14;;;;;;;6.47;3.80;;;1.70;99.90;;;;;;5312155;27;20481;-74
2021/12/23 14:31:49;;;;;;;8.23;4.10;;;1.80;99.90;;;;;;5301015;27;20019;-73
2021/12/23 14:34:24;;;;;;;6.57;3.58;;;1.40;99.90;;;;;;5293614;28;20024;-72
2021/12/23 14:36:59;;;;;;;15.65;8.90;;;1.80;99.90;;;;;;5293727;28;20098;-74
2021/12/23 14:39:40;;;;;;;5.50;3.83;;;1.50;99.90;;;;;;5293345;28;20516;-75
2021/12/23 14:42:17;;;;;;;5.20;3.50;;;1.30;99.90;;;;;;5291971;28;20076;-76
2021/12/23 14:45:05;;;;;;;10.07;5.00;;;1.30;99.90;;;;;;5293123;28;20118;-76